createdAt,value
2018-01-28T00:01:48.938Z,8.94
2018-01-28T00:04:17.397Z,9.68
2018-01-28T00:06:45.803Z,8.55
2018-01-28T00:09:14.267Z,8.98
2018-01-28T00:11:42.956Z,10.09
2018-01-28T00:14:11.344Z,9.66
2018-01-28T00:16:39.731Z,8.88
2018-01-28T00:19:08.112Z,9.06
2018-01-28T00:21:36.483Z,8.69
2018-01-28T00:24:04.918Z,8.46
2018-01-28T00:26:33.311Z,9.26
2018-01-28T00:29:01.730Z,9.09
2018-01-28T00:31:30.111Z,9.56
2018-01-28T00:33:58.794Z,9.05
2018-01-28T00:36:27.190Z,8.69
2018-01-28T00:38:55.605Z,8.51
2018-01-28T00:41:23.994Z,8.37
2018-01-28T00:43:52.380Z,7.95
2018-01-28T00:46:20.801Z,8.29
2018-01-28T00:48:49.184Z,8.64
2018-01-28T00:51:17.763Z,7.82
2018-01-28T00:53:46.155Z,8.41
2018-01-28T00:56:14.623Z,8.08
2018-01-28T00:58:43.028Z,7.92
2018-01-28T01:01:11.504Z,8.24
2018-01-28T01:03:39.974Z,7.38
2018-01-28T01:06:08.363Z,8.24
2018-01-28T01:08:36.750Z,7.96
2018-01-28T01:11:05.130Z,8.78
2018-01-28T01:13:33.555Z,8.46
2018-01-28T01:16:02.025Z,8.23
2018-01-28T01:18:30.882Z,8.30
2018-01-28T01:20:59.271Z,8.53
2018-01-28T01:23:27.688Z,8.05
2018-01-28T01:25:56.083Z,8.42
2018-01-28T01:28:24.495Z,9.03
2018-01-28T01:30:52.940Z,8.10
2018-01-28T01:33:21.323Z,8.26
2018-01-28T01:35:49.696Z,8.03
2018-01-28T01:38:18.083Z,8.42
2018-01-28T01:40:46.467Z,8.04
2018-01-28T01:43:15.167Z,8.15
2018-01-28T01:45:43.543Z,8.34
2018-01-28T01:48:11.934Z,8.76
2018-01-28T01:50:40.385Z,8.65
2018-01-28T01:53:08.770Z,8.15
2018-01-28T01:55:37.183Z,8.30
2018-01-28T01:58:05.558Z,8.23
2018-01-28T02:00:34.020Z,9.05
2018-01-28T02:03:02.398Z,8.65
2018-01-28T02:05:30.833Z,9.15
2018-01-28T02:07:59.218Z,8.77
2018-01-28T02:10:27.602Z,8.89
2018-01-28T02:12:55.988Z,7.58
2018-01-28T02:15:24.714Z,7.65
2018-01-28T02:17:53.115Z,8.21
2018-01-28T02:20:21.530Z,7.95
2018-01-28T02:22:49.927Z,8.48
2018-01-28T02:25:18.286Z,8.52
2018-01-28T02:27:46.724Z,7.85
2018-01-28T02:30:15.215Z,8.08
2018-01-28T02:32:43.602Z,7.71
2018-01-28T02:35:11.991Z,7.72
2018-01-28T02:37:40.359Z,7.99
2018-01-28T02:40:08.884Z,7.34
2018-01-28T02:42:37.253Z,8.54
2018-01-28T02:45:05.933Z,8.56
2018-01-28T02:47:34.326Z,8.00
2018-01-28T02:50:02.690Z,8.22
2018-01-28T02:52:31.066Z,8.21
2018-01-28T02:54:59.457Z,8.33
2018-01-28T02:57:28.185Z,9.07
2018-01-28T02:59:56.595Z,8.87
2018-01-28T03:02:24.975Z,8.33
2018-01-28T03:04:53.350Z,8.73
2018-01-28T03:07:21.727Z,8.87
2018-01-28T03:09:50.414Z,8.94
2018-01-28T03:12:18.798Z,9.24
2018-01-28T03:14:47.186Z,9.84
2018-01-28T03:17:15.557Z,9.03
2018-01-28T03:19:43.939Z,9.10
2018-01-28T03:22:12.375Z,9.16
2018-01-28T03:24:40.758Z,9.43
2018-01-28T03:27:09.191Z,9.05
2018-01-28T03:29:37.859Z,8.72
2018-01-28T03:32:06.238Z,9.21
2018-01-28T03:34:34.622Z,9.20
2018-01-28T03:37:03.001Z,9.38
2018-01-28T03:39:31.730Z,9.95
2018-01-28T03:42:00.120Z,9.83
2018-01-28T03:44:28.508Z,9.21
2018-01-28T03:46:56.874Z,9.42
2018-01-28T03:49:25.259Z,8.84
2018-01-28T03:51:53.948Z,9.11
2018-01-28T03:54:22.375Z,9.61
2018-01-28T03:56:50.695Z,9.12
2018-01-28T03:59:19.058Z,9.18
2018-01-28T04:01:47.710Z,9.36
2018-01-28T04:04:16.058Z,9.14
2018-01-28T04:06:44.401Z,9.35
2018-01-28T04:09:12.754Z,8.90
2018-01-28T04:11:41.098Z,9.68
2018-01-28T04:14:09.616Z,9.69
2018-01-28T04:16:37.996Z,9.43
2018-01-28T04:19:06.543Z,9.31
2018-01-28T04:21:34.915Z,9.24
2018-01-28T04:24:03.290Z,9.20
2018-01-28T04:26:31.963Z,9.09
2018-01-28T04:29:00.355Z,10.22
2018-01-28T04:31:28.818Z,9.13
2018-01-28T04:33:57.203Z,9.64
2018-01-28T04:36:25.566Z,9.30
2018-01-28T04:38:54.108Z,9.82
2018-01-28T04:41:22.473Z,9.15
2018-01-28T04:43:50.851Z,10.02
2018-01-28T04:46:19.235Z,9.89
2018-01-28T04:48:47.626Z,9.97
2018-01-28T04:51:16.353Z,9.78
2018-01-28T04:53:44.827Z,10.11
2018-01-28T04:56:13.218Z,9.26
2018-01-28T04:58:41.595Z,10.15
2018-01-28T05:01:10.323Z,10.40
2018-01-28T05:03:38.706Z,10.19
2018-01-28T05:06:07.104Z,10.61
2018-01-28T05:08:35.491Z,10.93
2018-01-28T05:11:03.873Z,9.88
2018-01-28T05:13:32.668Z,11.05
2018-01-28T05:16:01.083Z,10.69
2018-01-28T05:18:29.454Z,10.05
2018-01-28T05:20:57.826Z,9.37
2018-01-28T05:23:26.624Z,9.89
2018-01-28T05:25:55.002Z,9.46
2018-01-28T05:28:23.478Z,10.01
2018-01-28T05:30:51.881Z,10.12
2018-01-28T05:33:20.262Z,10.26
2018-01-28T05:35:48.710Z,10.16
2018-01-28T05:38:17.175Z,10.15
2018-01-28T05:40:45.576Z,10.26
2018-01-28T05:43:13.928Z,10.38
2018-01-28T05:45:42.272Z,10.73
2018-01-28T05:48:11.028Z,10.67
2018-01-28T05:50:39.372Z,10.22
2018-01-28T05:53:07.817Z,10.85
2018-01-28T05:55:36.203Z,10.70
2018-01-28T05:58:04.586Z,10.22
2018-01-28T06:00:33.280Z,10.31
2018-01-28T06:03:01.660Z,10.25
2018-01-28T06:05:30.093Z,10.79
2018-01-28T06:07:58.434Z,10.65
2018-01-28T06:10:26.804Z,10.79
2018-01-28T06:12:55.299Z,10.22
2018-01-28T06:15:23.694Z,10.19
2018-01-28T06:17:52.430Z,10.17
2018-01-28T06:20:20.858Z,10.02
2018-01-28T06:22:49.278Z,9.98
2018-01-28T06:25:17.739Z,10.06
2018-01-28T06:27:46.131Z,9.86
2018-01-28T06:30:14.912Z,10.55
2018-01-28T06:32:43.296Z,10.51
2018-01-28T06:35:11.680Z,9.99
2018-01-28T06:37:40.131Z,10.31
2018-01-28T06:40:08.515Z,10.31
2018-01-28T06:42:36.901Z,10.96
2018-01-28T06:45:05.276Z,10.85
2018-01-28T06:47:33.667Z,11.34
2018-01-28T06:50:02.058Z,11.21
2018-01-28T06:52:30.447Z,11.58
2018-01-28T06:54:59.202Z,11.07
2018-01-28T06:57:27.589Z,11.71
2018-01-28T06:59:55.992Z,11.26
2018-01-28T07:02:24.403Z,11.33
2018-01-28T07:04:52.866Z,11.41
2018-01-28T07:07:21.426Z,10.93
2018-01-28T07:09:49.829Z,10.54
2018-01-28T07:12:18.211Z,11.00
2018-01-28T07:14:46.615Z,11.21
2018-01-28T07:17:15.326Z,10.61
2018-01-28T07:19:43.717Z,11.27
2018-01-28T07:22:12.163Z,10.51
2018-01-28T07:24:40.555Z,10.91
2018-01-28T07:27:08.929Z,10.57
2018-01-28T07:29:37.527Z,10.67
2018-01-28T07:32:05.905Z,11.04
2018-01-28T07:34:34.284Z,11.16
2018-01-28T07:37:02.747Z,10.98
2018-01-28T07:39:31.460Z,10.16
2018-01-28T07:41:59.863Z,10.00
2018-01-28T07:44:28.307Z,10.89
2018-01-28T07:46:56.694Z,11.41
2018-01-28T07:49:25.161Z,11.18
2018-01-28T07:51:53.542Z,11.11
2018-01-28T07:54:21.939Z,11.30
2018-01-28T07:56:50.383Z,10.62
2018-01-28T07:59:18.769Z,11.12
2018-01-28T08:01:47.202Z,11.18
2018-01-28T08:04:15.607Z,11.67
2018-01-28T08:06:43.998Z,11.56
2018-01-28T08:09:12.385Z,11.26
2018-01-28T08:14:45.031Z,11.47
2018-01-28T08:17:13.483Z,11.60
2018-01-28T08:19:41.860Z,11.95
2018-01-28T08:22:10.346Z,12.49
2018-01-28T08:24:38.926Z,12.78
2018-01-28T08:27:09.188Z,12.62
2018-01-28T08:29:38.570Z,13.47
2018-01-28T08:32:06.982Z,11.37
2018-01-28T08:34:35.419Z,10.44
2018-01-28T08:37:04.475Z,11.24
2018-01-28T08:39:33.010Z,11.55
2018-01-28T08:42:01.383Z,10.93
2018-01-28T08:44:30.016Z,10.00
2018-01-28T08:46:58.445Z,11.17
2018-01-28T08:49:26.832Z,10.81
2018-01-28T08:51:55.222Z,11.29
2018-01-28T08:54:23.606Z,11.97
2018-01-28T08:56:52.003Z,12.05
2018-01-28T08:59:20.386Z,11.93
2018-01-28T09:01:48.747Z,11.32
2018-01-28T09:04:17.114Z,10.77
2018-01-28T09:06:45.474Z,10.89
2018-01-28T09:09:13.945Z,12.39
2018-01-28T09:11:42.348Z,11.62
2018-01-28T09:14:10.790Z,11.94
2018-01-28T09:16:39.216Z,11.18
2018-01-28T09:19:07.614Z,11.49
2018-01-28T09:21:36.078Z,10.68
2018-01-28T09:24:04.467Z,11.64
2018-01-28T09:26:32.856Z,11.29
2018-01-28T09:29:01.329Z,10.93
2018-01-28T09:31:29.719Z,10.73
2018-01-28T09:33:58.122Z,10.93
2018-01-28T09:36:26.876Z,10.81
2018-01-28T09:38:55.294Z,11.01
2018-01-28T09:41:23.737Z,11.46
2018-01-28T09:43:52.352Z,10.77
2018-01-28T09:46:20.839Z,11.27
2018-01-28T09:48:49.304Z,10.88
2018-01-28T09:51:17.716Z,11.04
2018-01-28T09:53:46.122Z,11.41
2018-01-28T09:56:14.563Z,11.16
2018-01-28T09:58:43.387Z,11.09
2018-01-28T10:01:11.779Z,10.86
2018-01-28T10:03:40.194Z,11.60
2018-01-28T10:06:08.854Z,12.64
2018-01-28T10:08:37.279Z,10.96
2018-01-28T10:11:05.684Z,11.34
2018-01-28T10:13:34.137Z,11.15
2018-01-28T10:16:02.553Z,11.03
2018-01-28T10:18:30.962Z,11.23
2018-01-28T10:20:59.686Z,11.30
2018-01-28T10:23:28.100Z,11.06
2018-01-28T10:25:56.540Z,10.87
2018-01-28T10:28:24.917Z,11.28
2018-01-28T10:30:53.338Z,11.33
2018-01-28T10:33:22.151Z,11.53
2018-01-28T10:35:50.567Z,11.90
2018-01-28T10:38:19.050Z,11.18
2018-01-28T10:40:47.779Z,11.70
2018-01-28T10:43:16.180Z,11.68
2018-01-28T10:45:44.675Z,11.26
2018-01-28T10:48:13.131Z,11.76
2018-01-28T10:50:41.533Z,12.63
2018-01-28T10:53:09.954Z,11.85
2018-01-28T10:55:38.555Z,11.93
2018-01-28T10:58:06.993Z,12.43
2018-01-28T11:00:35.411Z,11.97
2018-01-28T11:03:04.005Z,12.43
2018-01-28T11:05:32.467Z,12.34
2018-01-28T11:08:00.867Z,11.72
2018-01-28T11:10:29.629Z,12.11
2018-01-28T11:12:58.127Z,11.91
2018-01-28T11:15:26.490Z,11.79
2018-01-28T11:17:54.859Z,11.64
2018-01-28T11:20:23.252Z,11.74
2018-01-28T11:22:51.774Z,12.17
2018-01-28T11:25:20.436Z,12.13
2018-01-28T11:27:48.854Z,11.55
2018-01-28T11:30:17.407Z,13.86
2018-01-28T11:32:45.847Z,11.86
2018-01-28T11:35:14.226Z,11.74
2018-01-28T11:37:42.606Z,10.50
2018-01-28T11:40:11.144Z,12.21
2018-01-28T11:42:39.542Z,16.02
2018-01-28T11:45:08.251Z,13.00
2018-01-28T11:47:37.406Z,13.00
2018-01-28T11:50:06.411Z,11.33
2018-01-28T11:52:35.599Z,15.43
2018-01-28T11:55:04.209Z,15.01
2018-01-28T11:57:32.688Z,15.60
2018-01-28T12:00:01.125Z,12.33
2018-01-28T12:02:29.607Z,13.36
2018-01-28T12:04:57.996Z,12.90
2018-01-28T12:07:26.395Z,12.64
2018-01-28T12:09:55.108Z,12.08
2018-01-28T12:12:23.546Z,13.33
2018-01-28T12:14:52.036Z,13.31
2018-01-28T12:17:20.882Z,12.95
2018-01-28T12:19:49.275Z,13.06
2018-01-28T12:22:17.663Z,12.36
2018-01-28T12:24:46.379Z,12.98
2018-01-28T12:27:14.828Z,15.36
2018-01-28T12:29:43.219Z,13.53
2018-01-28T12:32:11.649Z,13.08
2018-01-28T12:34:40.154Z,12.13
2018-01-28T12:37:08.540Z,13.07
2018-01-28T12:39:37.311Z,12.40
2018-01-28T12:42:05.793Z,12.99
2018-01-28T12:44:34.219Z,13.29
2018-01-28T12:47:02.814Z,12.81
2018-01-28T12:49:32.150Z,13.08
2018-01-28T12:52:00.538Z,12.73
2018-01-28T12:54:29.248Z,13.37
2018-01-28T12:56:57.648Z,13.19
2018-01-28T12:59:26.010Z,12.16
2018-01-28T13:01:54.415Z,12.98
2018-01-28T13:04:22.814Z,12.33
2018-01-28T13:06:51.209Z,12.47
2018-01-28T13:09:20.044Z,12.05
2018-01-28T13:11:48.594Z,12.70
2018-01-28T13:14:16.996Z,12.39
2018-01-28T13:16:45.893Z,12.48
2018-01-28T13:19:14.376Z,12.32
2018-01-28T13:21:42.762Z,12.12
2018-01-28T13:24:11.248Z,12.71
2018-01-28T13:26:39.740Z,12.46
2018-01-28T13:29:08.146Z,11.83
2018-01-28T13:31:36.960Z,12.15
2018-01-28T13:34:05.335Z,15.31
2018-01-28T13:36:33.742Z,15.05
2018-01-28T13:39:02.472Z,14.87
2018-01-28T13:41:30.863Z,13.69
2018-01-28T13:43:59.311Z,13.54
2018-01-28T13:46:28.042Z,14.46
2018-01-28T13:48:56.441Z,14.39
2018-01-28T13:51:24.831Z,13.80
2018-01-28T13:53:53.541Z,14.13
2018-01-28T13:56:21.940Z,13.61
2018-01-28T13:58:50.343Z,13.00
2018-01-28T14:01:19.217Z,13.88
2018-01-28T14:03:47.771Z,13.03
2018-01-28T14:06:16.548Z,13.46
2018-01-28T14:08:45.517Z,13.39
2018-01-28T14:11:14.147Z,13.28
2018-01-28T14:13:42.761Z,13.14
2018-01-28T14:16:30.103Z,14.48
2018-01-28T14:18:58.579Z,13.59
2018-01-28T14:21:27.247Z,13.01
2018-01-28T14:23:55.621Z,13.13
2018-01-28T14:26:24.001Z,13.56
2018-01-28T14:28:52.381Z,13.43
2018-01-28T14:31:20.758Z,12.86
2018-01-28T14:33:49.487Z,13.95
2018-01-28T14:36:17.859Z,13.52
2018-01-28T14:38:46.239Z,13.73
2018-01-28T14:41:14.616Z,13.73
2018-01-28T14:43:43.012Z,13.34
2018-01-28T14:46:11.813Z,14.12
2018-01-28T14:48:40.187Z,13.95
2018-01-28T14:51:08.554Z,14.57
2018-01-28T14:53:36.923Z,14.19
2018-01-28T14:56:05.313Z,13.67
2018-01-28T14:58:33.746Z,14.00
2018-01-28T15:01:02.119Z,13.83
2018-01-28T15:03:30.489Z,13.80
2018-01-28T15:05:58.871Z,14.62
2018-01-28T15:08:27.382Z,13.63
2018-01-28T15:10:56.565Z,14.04
2018-01-28T15:13:25.022Z,14.12
2018-01-28T15:15:56.808Z,13.71
2018-01-28T15:18:27.456Z,13.47
2018-01-28T15:20:56.470Z,13.87
2018-01-28T15:23:25.335Z,13.78
2018-01-28T15:25:53.817Z,13.43
2018-01-28T15:28:22.432Z,13.71
2018-01-28T15:30:51.054Z,12.75
2018-01-28T15:33:20.826Z,13.67
2018-01-28T15:35:50.112Z,13.67
2018-01-28T15:38:18.748Z,12.68
2018-01-28T15:40:47.265Z,13.33
2018-01-28T15:43:15.706Z,13.23
2018-01-28T15:45:44.331Z,14.04
2018-01-28T15:48:13.137Z,13.57
2018-01-28T15:50:41.679Z,14.05
2018-01-28T15:53:10.171Z,12.51
2018-01-28T15:55:38.644Z,13.32
2018-01-28T15:58:07.060Z,12.87
2018-01-28T16:00:35.667Z,13.48
2018-01-28T16:03:04.155Z,13.27
2018-01-28T16:05:32.655Z,13.34
2018-01-28T16:08:03.153Z,13.06
2018-01-28T16:10:31.531Z,13.58
2018-01-28T16:13:00.335Z,13.62
2018-01-28T16:15:28.785Z,14.23
2018-01-28T16:17:57.250Z,13.63
2018-01-28T16:20:25.641Z,13.54
2018-01-28T16:22:54.226Z,13.46
2018-01-28T16:25:23.107Z,13.65
2018-01-28T16:27:51.623Z,13.36
2018-01-28T16:30:20.034Z,13.48
2018-01-28T16:32:48.434Z,13.53
2018-01-28T16:35:16.872Z,13.81
2018-01-28T16:37:45.575Z,13.52
2018-01-28T16:40:15.115Z,13.34
2018-01-28T16:42:43.748Z,13.28
2018-01-28T16:45:12.115Z,14.40
2018-01-28T16:47:40.616Z,14.25
2018-01-28T16:50:15.506Z,14.16
2018-01-28T16:52:43.947Z,14.13
2018-01-28T16:55:12.349Z,13.69
2018-01-28T16:57:40.724Z,15.15
2018-01-28T17:00:09.139Z,14.31
2018-01-28T17:02:37.741Z,14.61
2018-01-28T17:05:06.108Z,13.58
2018-01-28T17:07:34.494Z,14.00
2018-01-28T17:10:02.867Z,14.46
2018-01-28T17:12:31.239Z,14.84
2018-01-28T17:14:59.951Z,15.59
2018-01-28T17:17:28.345Z,14.86
2018-01-28T17:19:56.760Z,14.21
2018-01-28T17:22:25.167Z,14.36
2018-01-28T17:24:53.624Z,14.30
2018-01-28T17:27:22.039Z,14.35
2018-01-28T17:29:50.419Z,13.89
2018-01-28T17:32:18.907Z,14.49
2018-01-28T17:34:47.355Z,15.27
2018-01-28T17:37:15.742Z,13.61
2018-01-28T17:39:44.575Z,14.85
2018-01-28T17:42:12.956Z,14.29
2018-01-28T17:44:41.329Z,14.87
2018-01-28T17:47:09.732Z,14.10
2018-01-28T17:49:38.143Z,13.67
2018-01-28T17:52:07.043Z,13.99
2018-01-28T17:54:35.494Z,14.89
2018-01-28T17:57:03.911Z,14.01
2018-01-28T17:59:32.330Z,14.77
2018-01-28T18:02:00.733Z,13.37
2018-01-28T18:04:29.667Z,13.31
2018-01-28T18:06:58.066Z,14.38
2018-01-28T18:09:26.469Z,13.41
2018-01-28T18:11:54.908Z,15.13
2018-01-28T18:14:23.292Z,15.68
2018-01-28T18:16:51.715Z,14.50
2018-01-28T18:19:20.134Z,15.14
2018-01-28T18:21:48.586Z,14.53
2018-01-28T18:24:17.024Z,14.48
2018-01-28T18:26:45.410Z,15.28
2018-01-28T18:29:13.802Z,15.06
2018-01-28T18:31:42.286Z,14.31
2018-01-28T18:34:10.861Z,14.75
2018-01-28T18:36:39.234Z,15.59
2018-01-28T18:39:07.682Z,14.49
2018-01-28T18:41:36.071Z,15.55
2018-01-28T18:44:04.546Z,14.48
2018-01-28T18:46:32.988Z,16.00
2018-01-28T18:49:01.457Z,14.82
2018-01-28T18:51:31.106Z,15.18
2018-01-28T18:53:59.469Z,15.02
2018-01-28T18:56:27.844Z,15.37
2018-01-28T18:58:56.305Z,15.53
2018-01-28T19:01:24.670Z,15.75
2018-01-28T19:03:53.068Z,15.57
2018-01-28T19:06:21.443Z,15.29
2018-01-28T19:08:49.826Z,16.02
2018-01-28T19:11:18.372Z,15.26
2018-01-28T19:13:46.751Z,14.98
2018-01-28T19:16:15.139Z,15.68
2018-01-28T19:18:43.497Z,15.00
2018-01-28T19:21:11.896Z,16.24
2018-01-28T19:23:40.372Z,15.21
2018-01-28T19:26:08.821Z,14.73
2018-01-28T19:28:37.203Z,15.41
2018-01-28T19:31:05.572Z,15.28
2018-01-28T19:33:33.962Z,14.34
2018-01-28T19:36:02.663Z,15.53
2018-01-28T19:38:31.059Z,15.61
2018-01-28T19:40:59.466Z,15.42
2018-01-28T19:43:27.826Z,14.89
2018-01-28T19:45:56.220Z,13.86
2018-01-28T19:48:24.639Z,14.65
2018-01-28T19:50:53.103Z,14.35
2018-01-28T19:53:21.464Z,14.42
2018-01-28T19:55:49.822Z,14.81
2018-01-28T19:58:18.246Z,15.76
2018-01-28T20:00:47.033Z,15.01
2018-01-28T20:03:15.436Z,15.42
2018-01-28T20:05:46.091Z,15.84
2018-01-28T20:08:14.599Z,15.65
2018-01-28T20:10:42.981Z,16.01
2018-01-28T20:13:11.831Z,14.88
2018-01-28T20:15:40.197Z,15.58
2018-01-28T20:18:08.586Z,15.57
2018-01-28T20:20:36.999Z,15.98
2018-01-28T20:23:05.369Z,15.72
2018-01-28T20:25:34.162Z,15.17
2018-01-28T20:28:02.539Z,15.78
2018-01-28T20:30:32.127Z,14.61
2018-01-28T20:35:39.929Z,14.80
2018-01-28T20:38:08.694Z,14.27
2018-01-28T20:40:37.185Z,14.43
2018-01-28T20:43:05.593Z,14.33
2018-01-28T20:45:34.002Z,14.90
2018-01-28T20:48:02.359Z,14.77
2018-01-28T20:50:31.227Z,15.10
2018-01-28T20:53:00.512Z,15.21
2018-01-28T20:55:28.925Z,15.26
2018-01-28T20:57:57.353Z,15.28
2018-01-28T21:00:25.749Z,14.17
2018-01-28T21:02:54.460Z,14.11
2018-01-28T21:09:39.300Z,14.32
2018-01-28T21:12:07.722Z,15.23
2018-01-28T21:14:36.114Z,15.04
2018-01-28T21:17:04.589Z,15.11
2018-01-28T21:19:33.034Z,14.65
2018-01-28T21:22:01.622Z,15.20
2018-01-28T21:24:30.035Z,15.11
2018-01-28T21:26:58.450Z,15.83
2018-01-28T21:29:26.845Z,14.21
2018-01-28T21:31:55.230Z,13.54
2018-01-28T21:34:24.040Z,15.04
2018-01-28T21:36:52.444Z,14.86
2018-01-28T21:39:20.904Z,14.65
2018-01-28T21:41:49.299Z,15.03
2018-01-28T21:44:17.732Z,15.13
2018-01-28T21:46:46.404Z,14.82
2018-01-28T21:49:14.812Z,14.86
2018-01-28T21:51:43.241Z,15.42
2018-01-28T21:54:11.631Z,14.85
2018-01-28T21:56:40.040Z,15.23
2018-01-28T21:59:08.586Z,15.64
2018-01-28T22:01:36.991Z,15.77
2018-01-28T22:04:05.415Z,15.30
2018-01-28T22:06:33.823Z,14.63
2018-01-28T22:09:02.257Z,14.51
2018-01-28T22:11:30.989Z,14.17
2018-01-28T22:13:59.379Z,13.89
2018-01-28T22:16:27.792Z,14.33
2018-01-28T22:18:56.211Z,14.46
2018-01-28T22:21:24.659Z,14.44
2018-01-28T22:23:53.078Z,14.14
2018-01-28T22:26:21.520Z,15.02
2018-01-28T22:28:50.331Z,15.48
2018-01-28T22:31:18.836Z,14.94
2018-01-28T22:33:47.284Z,15.06
2018-01-28T22:36:15.671Z,14.83
2018-01-28T22:38:44.084Z,13.83
2018-01-28T22:41:12.475Z,14.78
2018-01-28T22:43:40.874Z,15.09
2018-01-28T22:46:09.610Z,15.31
2018-01-28T22:48:38.059Z,13.79
2018-01-28T22:51:06.470Z,13.69
2018-01-28T22:53:34.865Z,14.37
2018-01-28T22:56:03.278Z,15.10
2018-01-28T22:58:31.763Z,14.63
2018-01-28T23:01:00.151Z,16.14
2018-01-28T23:03:28.626Z,14.89
2018-01-28T23:05:57.025Z,14.79
2018-01-28T23:08:25.415Z,15.89
2018-01-28T23:10:54.129Z,14.59
2018-01-28T23:13:22.535Z,14.33
2018-01-28T23:15:50.968Z,15.20
2018-01-28T23:18:19.352Z,14.93
2018-01-28T23:20:48.005Z,14.58
2018-01-28T23:23:16.422Z,15.09
2018-01-28T23:25:44.803Z,14.60
2018-01-28T23:28:13.200Z,15.64
2018-01-28T23:30:41.649Z,15.17
2018-01-28T23:33:10.059Z,15.91
2018-01-28T23:35:38.453Z,15.75
2018-01-28T23:38:06.853Z,15.03
2018-01-28T23:43:10.188Z,15.23
2018-01-28T23:45:38.575Z,15.77
2018-01-28T23:48:07.004Z,14.91
2018-01-28T23:50:35.387Z,14.65
2018-01-28T23:53:03.802Z,15.51
2018-01-28T23:55:32.581Z,15.50
2018-01-28T23:58:01.065Z,16.10
